createdAt,value
2019-04-23T00:01:07.799Z,9.17
2019-04-23T00:03:34.348Z,9.19
2019-04-23T00:06:15.138Z,9.09
2019-04-23T00:08:41.986Z,9.16
2019-04-23T00:13:45.450Z,9.21
2019-04-23T00:16:21.551Z,9.16
2019-04-23T00:18:43.748Z,9.13
2019-04-23T00:29:15.005Z,8.90
2019-04-23T00:31:31.403Z,8.91
2019-04-23T00:34:24.981Z,8.98
2019-04-23T00:36:52.527Z,8.95
2019-04-23T00:39:08.771Z,8.92
2019-04-23T00:44:06.360Z,8.80
2019-04-23T00:46:44.754Z,8.84
2019-04-23T00:51:43.061Z,8.77
2019-04-23T00:54:22.700Z,8.73
2019-04-23T00:59:21.269Z,8.78
2019-04-23T01:01:55.765Z,8.83
2019-04-23T01:04:18.586Z,8.88
2019-04-23T01:06:54.557Z,8.87
2019-04-23T01:09:27.152Z,8.85
2019-04-23T01:12:00.906Z,8.68
2019-04-23T01:14:29.285Z,8.65
2019-04-23T01:16:55.083Z,8.77
2019-04-23T01:19:52.472Z,8.82
2019-04-23T01:21:57.925Z,8.84
2019-04-23T01:24:52.840Z,8.71
2019-04-23T01:30:19.759Z,8.69
2019-04-23T01:32:55.203Z,8.72
2019-04-23T01:35:41.326Z,8.78
2019-04-23T01:38:11.470Z,8.84
2019-04-23T01:40:32.335Z,8.66
2019-04-23T01:43:00.010Z,8.51
2019-04-23T01:47:59.619Z,8.66
2019-04-23T01:50:47.324Z,8.62
2019-04-23T01:55:42.453Z,8.78
2019-04-23T01:58:25.805Z,8.79
2019-04-23T02:00:41.040Z,8.69
2019-04-23T02:03:15.502Z,8.79
2019-04-23T02:05:48.246Z,8.81
2019-04-23T02:08:12.652Z,8.86
2019-04-23T02:11:02.824Z,8.90
2019-04-23T02:13:27.993Z,8.77
2019-04-23T02:15:53.401Z,8.80
2019-04-23T02:18:20.646Z,8.63
2019-04-23T02:21:02.378Z,8.66
2019-04-23T02:23:46.105Z,8.63
2019-04-23T02:26:23.385Z,8.67
2019-04-23T02:29:06.770Z,8.50
2019-04-23T02:34:18.919Z,8.58
2019-04-23T02:36:34.956Z,8.40
2019-04-23T02:41:27.592Z,8.44
2019-04-23T02:44:06.997Z,8.47
2019-04-23T02:46:17.550Z,8.48
2019-04-23T02:49:12.449Z,8.52
2019-04-23T02:56:37.457Z,8.56
2019-04-23T02:59:11.142Z,8.47
2019-04-23T03:01:29.823Z,8.49
2019-04-23T03:04:19.685Z,8.46
2019-04-23T03:06:43.359Z,8.47
2019-04-23T03:09:18.829Z,8.49
2019-04-23T03:11:40.931Z,8.57
2019-04-23T03:14:18.621Z,8.68
2019-04-23T03:19:58.546Z,8.73
2019-04-23T03:25:10.040Z,8.80
2019-04-23T03:27:37.390Z,8.79
2019-04-23T03:30:13.609Z,8.80
2019-04-23T03:37:40.165Z,8.67
2019-04-23T03:40:11.622Z,8.69
2019-04-23T03:43:01.314Z,8.74
2019-04-23T03:47:37.393Z,8.83
2019-04-23T03:52:44.367Z,8.85
2019-04-23T03:55:19.164Z,8.97
2019-04-23T03:57:43.281Z,9.05
2019-04-23T04:05:47.299Z,9.22
2019-04-23T04:08:07.987Z,9.24
2019-04-23T04:10:35.259Z,9.29
2019-04-23T04:13:22.276Z,9.30
2019-04-23T04:18:21.260Z,9.22
2019-04-23T04:26:00.149Z,9.08
2019-04-23T04:28:17.666Z,9.15
2019-04-23T04:30:49.518Z,9.01
2019-04-23T04:33:41.368Z,8.98
2019-04-23T04:35:57.951Z,8.88
2019-04-23T04:41:19.339Z,9.27
2019-04-23T04:43:54.208Z,9.45
2019-04-23T04:46:15.296Z,9.56
2019-04-23T04:53:58.102Z,9.40
2019-04-23T04:56:18.900Z,9.58
2019-04-23T04:59:03.602Z,9.59
2019-04-23T05:01:25.990Z,9.45
2019-04-23T05:03:32.730Z,9.67
2019-04-23T05:06:24.682Z,9.79
2019-04-23T05:16:27.745Z,11.07
2019-04-23T05:19:25.031Z,10.88
2019-04-23T05:21:46.679Z,10.95
2019-04-23T05:26:33.356Z,10.70
2019-04-23T05:29:11.549Z,10.70
2019-04-23T05:31:40.411Z,10.92
2019-04-23T05:36:49.213Z,10.88
2019-04-23T05:39:24.701Z,10.96
2019-04-23T05:41:45.573Z,10.93
2019-04-23T05:44:21.275Z,10.99
2019-04-23T05:46:52.315Z,10.79
2019-04-23T05:49:26.192Z,10.71
2019-04-23T05:51:55.142Z,10.66
2019-04-23T05:54:26.573Z,10.78
2019-04-23T05:56:56.914Z,10.93
2019-04-23T05:59:43.601Z,11.09
2019-04-23T06:01:57.455Z,10.95
2019-04-23T06:04:30.673Z,11.27
2019-04-23T06:07:15.009Z,11.49
2019-04-23T06:09:37.558Z,11.64
2019-04-23T06:14:41.054Z,11.87
2019-04-23T06:17:11.207Z,12.03
2019-04-23T06:19:33.118Z,11.64
2019-04-23T06:22:15.199Z,11.41
2019-04-23T06:24:41.174Z,11.11
2019-04-23T06:27:13.515Z,11.48
2019-04-23T06:29:45.060Z,11.68
2019-04-23T06:32:14.390Z,10.77
2019-04-23T06:34:50.199Z,11.17
2019-04-23T06:37:16.950Z,11.32
2019-04-23T06:39:48.426Z,11.73
2019-04-23T06:42:21.187Z,12.22
2019-04-23T06:44:58.440Z,12.38
2019-04-23T06:47:43.045Z,12.22
2019-04-23T06:49:55.884Z,12.18
2019-04-23T06:52:30.116Z,11.98
2019-04-23T06:55:01.562Z,11.90
2019-04-23T06:57:26.970Z,12.23
2019-04-23T07:00:02.434Z,12.53
2019-04-23T07:02:34.591Z,12.01
2019-04-23T07:05:14.103Z,11.77
2019-04-23T07:07:50.007Z,12.46
2019-04-23T07:10:07.296Z,12.81
2019-04-23T07:12:44.540Z,12.85
2019-04-23T07:15:28.005Z,13.28
2019-04-23T07:17:34.316Z,13.27
2019-04-23T07:20:16.495Z,13.31
2019-04-23T07:22:45.646Z,12.95
2019-04-23T07:25:12.859Z,12.53
2019-04-23T07:27:41.093Z,12.66
2019-04-23T07:32:52.942Z,11.53
2019-04-23T07:35:15.847Z,11.59
2019-04-23T07:40:31.257Z,12.10
2019-04-23T07:43:24.982Z,12.29
2019-04-23T07:46:08.148Z,12.19
2019-04-23T07:48:20.870Z,11.99
2019-04-23T07:51:03.331Z,12.43
2019-04-23T07:53:53.530Z,11.74
2019-04-23T07:56:11.601Z,12.80
2019-04-23T07:58:44.743Z,12.62
2019-04-23T08:01:07.104Z,12.68
2019-04-23T08:06:05.847Z,12.96
2019-04-23T08:08:43.918Z,13.06
2019-04-23T08:11:30.799Z,13.14
2019-04-23T08:13:55.642Z,13.26
2019-04-23T08:21:22.718Z,12.68
2019-04-23T08:27:04.233Z,12.51
2019-04-23T08:29:42.261Z,13.41
2019-04-23T08:32:13.932Z,13.31
2019-04-23T08:34:56.408Z,13.83
2019-04-23T08:37:26.590Z,13.70
2019-04-23T08:40:01.896Z,12.72
2019-04-23T08:48:30.803Z,14.01
2019-04-23T08:53:31.757Z,14.03
2019-04-23T08:55:50.131Z,14.17
2019-04-23T09:03:31.349Z,15.41
2019-04-23T09:06:14.025Z,15.59
2019-04-23T09:11:33.160Z,14.15
2019-04-23T09:13:53.439Z,13.54
2019-04-23T09:16:17.276Z,13.73
2019-04-23T09:18:33.607Z,13.68
2019-04-23T09:21:02.153Z,13.29
2019-04-23T09:23:39.162Z,13.45
2019-04-23T09:26:02.297Z,13.42
2019-04-23T09:28:56.765Z,13.12
2019-04-23T09:31:31.594Z,13.17
2019-04-23T09:34:19.328Z,13.06
2019-04-23T09:37:04.709Z,13.67
2019-04-23T09:39:43.068Z,14.43
2019-04-23T09:45:22.878Z,15.71
2019-04-23T09:48:01.642Z,16.06
2019-04-23T09:50:38.371Z,17.01
2019-04-23T09:53:24.022Z,17.01
2019-04-23T09:58:10.973Z,17.13
2019-04-23T10:00:40.736Z,17.35
2019-04-23T10:03:05.040Z,17.69
2019-04-23T10:05:31.129Z,17.18
2019-04-23T10:08:01.631Z,17.22
2019-04-23T10:10:22.802Z,16.77
2019-04-23T10:12:53.637Z,16.28
2019-04-23T10:15:28.764Z,15.09
2019-04-23T10:17:56.308Z,15.75
2019-04-23T10:20:26.776Z,16.25
2019-04-23T10:22:57.234Z,16.60
2019-04-23T10:25:27.893Z,16.87
2019-04-23T10:28:01.688Z,16.66
2019-04-23T10:30:28.987Z,16.58
2019-04-23T10:32:58.427Z,16.95
2019-04-23T10:35:39.435Z,16.95
2019-04-23T10:38:04.401Z,17.10
2019-04-23T10:40:34.798Z,17.03
2019-04-23T10:43:03.428Z,17.25
2019-04-23T10:46:21.815Z,17.03
2019-04-23T10:49:31.697Z,16.59
2019-04-23T10:52:02.619Z,17.05
2019-04-23T10:57:11.285Z,16.09
2019-04-23T10:59:38.823Z,16.20
2019-04-23T11:02:29.197Z,16.52
2019-04-23T11:07:28.488Z,16.90
2019-04-23T11:12:48.967Z,17.10
2019-04-23T11:15:27.460Z,15.69
2019-04-23T11:28:02.818Z,17.46
2019-04-23T11:30:33.759Z,17.58
2019-04-23T11:38:31.467Z,18.21
2019-04-23T11:40:34.033Z,18.45
2019-04-23T11:45:38.871Z,18.70
2019-04-23T11:51:11.633Z,19.06
2019-04-23T11:53:10.445Z,18.90
2019-04-23T11:55:45.787Z,18.59
2019-04-23T12:01:10.826Z,18.16
2019-04-23T12:03:37.384Z,18.14
2019-04-23T12:09:15.983Z,18.10
2019-04-23T12:11:54.581Z,17.87
2019-04-23T12:29:46.201Z,16.32
2019-04-23T12:32:48.054Z,16.55
2019-04-23T12:35:19.392Z,16.85
2019-04-23T12:43:12.106Z,16.93
2019-04-23T12:48:16.327Z,16.78
2019-04-23T12:53:03.045Z,16.91
2019-04-23T12:58:03.967Z,16.78
2019-04-23T13:00:33.926Z,16.47
2019-04-23T13:03:10.416Z,16.64
2019-04-23T13:05:33.921Z,16.70
2019-04-23T13:08:07.993Z,16.67
2019-04-23T13:13:18.879Z,16.44
2019-04-23T13:15:40.887Z,16.26
2019-04-23T13:18:09.448Z,16.13
2019-04-23T13:20:36.901Z,16.09
2019-04-23T13:23:19.801Z,16.01
2019-04-23T13:28:35.177Z,16.18
2019-04-23T13:31:12.715Z,16.01
2019-04-23T13:38:40.544Z,16.34
2019-04-23T13:41:19.174Z,16.51
2019-04-23T13:46:14.095Z,16.75
2019-04-23T13:48:42.240Z,16.93
2019-04-23T13:51:21.951Z,16.94
2019-04-23T13:58:51.079Z,16.99
2019-04-23T14:01:30.775Z,17.51
2019-04-23T14:04:16.179Z,17.63
2019-04-23T14:06:34.996Z,17.98
2019-04-23T14:11:26.471Z,18.19
2019-04-23T14:16:48.367Z,18.18
2019-04-23T14:19:13.019Z,17.94
2019-04-23T14:21:37.494Z,18.11
2019-04-23T14:26:39.979Z,18.04
2019-04-23T14:29:12.865Z,17.82
2019-04-23T14:31:43.221Z,17.71
2019-04-23T14:34:12.825Z,17.38
2019-04-23T14:36:52.554Z,17.24
2019-04-23T14:39:24.010Z,17.06
2019-04-23T14:41:53.308Z,17.06
2019-04-23T14:44:19.707Z,16.90
2019-04-23T14:47:14.660Z,16.73
2019-04-23T14:49:56.651Z,16.42
2019-04-23T14:52:06.139Z,16.36
2019-04-23T14:55:17.448Z,15.80
2019-04-23T14:57:21.280Z,15.52
2019-04-23T14:59:45.078Z,15.41
2019-04-23T15:02:19.457Z,15.64
2019-04-23T15:04:47.250Z,15.66
2019-04-23T15:07:24.301Z,15.73
2019-04-23T15:09:57.778Z,15.73
2019-04-23T15:12:23.100Z,15.67
2019-04-23T15:15:00.317Z,15.57
2019-04-23T15:25:25.610Z,15.27
2019-04-23T15:28:05.193Z,15.11
2019-04-23T15:29:57.805Z,15.22
2019-04-23T15:32:54.194Z,15.22
2019-04-23T15:35:31.359Z,14.94
2019-04-23T15:38:02.127Z,14.93
2019-04-23T15:40:15.236Z,14.96
2019-04-23T15:42:52.031Z,15.04
2019-04-23T15:45:15.130Z,15.00
2019-04-23T15:47:48.074Z,14.96
2019-04-23T15:50:22.744Z,14.72
2019-04-23T15:55:22.448Z,14.59
2019-04-23T16:00:22.400Z,14.28
2019-04-23T16:02:26.756Z,14.18
2019-04-23T16:04:56.151Z,14.32
2019-04-23T16:07:45.844Z,14.51
2019-04-23T16:12:56.687Z,14.75
2019-04-23T16:15:41.985Z,14.77
2019-04-23T16:18:25.964Z,14.65
2019-04-23T16:20:54.630Z,14.45
2019-04-23T16:23:17.818Z,14.41
2019-04-23T16:25:43.101Z,14.58
2019-04-23T16:28:25.320Z,14.53
2019-04-23T16:30:59.828Z,14.40
2019-04-23T16:33:16.368Z,14.46
2019-04-23T16:36:12.638Z,14.52
2019-04-23T16:41:17.413Z,14.53
2019-04-23T16:43:49.273Z,14.51
2019-04-23T16:46:21.485Z,14.51
2019-04-23T16:48:57.894Z,14.51
2019-04-23T16:51:25.160Z,14.48
2019-04-23T16:53:54.233Z,14.34
2019-04-23T16:56:28.839Z,14.49
2019-04-23T16:59:00.143Z,14.52
2019-04-23T17:01:22.916Z,14.45
2019-04-23T17:04:06.666Z,14.34
2019-04-23T17:08:59.736Z,14.28
2019-04-23T17:11:53.098Z,14.10
2019-04-23T17:14:08.088Z,14.11
2019-04-23T17:16:34.024Z,14.08
2019-04-23T17:19:11.534Z,13.78
2019-04-23T17:21:39.017Z,13.90
2019-04-23T17:24:20.857Z,13.83
2019-04-23T17:26:37.363Z,13.86
2019-04-23T17:29:15.512Z,13.84
2019-04-23T17:31:38.483Z,13.87
2019-04-23T17:34:23.774Z,13.81
2019-04-23T17:37:03.490Z,13.82
2019-04-23T17:39:47.479Z,13.74
2019-04-23T17:45:17.114Z,13.59
2019-04-23T17:47:51.734Z,13.72
2019-04-23T17:50:26.896Z,13.71
2019-04-23T17:52:59.173Z,13.66
2019-04-23T17:55:22.367Z,13.54
2019-04-23T17:58:01.693Z,13.49
2019-04-23T18:00:33.578Z,13.49
2019-04-23T18:05:37.159Z,13.24
2019-04-23T18:07:59.112Z,13.23
2019-04-23T18:10:41.508Z,13.29
2019-04-23T18:15:24.391Z,13.10
2019-04-23T18:18:13.597Z,13.06
2019-04-23T18:21:13.908Z,12.92
2019-04-23T18:23:35.398Z,12.86
2019-04-23T18:26:14.185Z,12.81
2019-04-23T18:28:50.188Z,12.75
2019-04-23T18:31:26.870Z,12.69
2019-04-23T18:34:13.728Z,12.77
2019-04-23T18:36:33.645Z,12.75
2019-04-23T18:39:07.184Z,12.79
2019-04-23T18:41:35.207Z,12.60
2019-04-23T18:44:17.228Z,12.64
2019-04-23T18:46:41.825Z,12.69
2019-04-23T18:49:11.375Z,12.51
2019-04-23T18:51:42.211Z,12.45
2019-04-23T18:54:08.159Z,12.44
2019-04-23T18:57:00.209Z,12.52
2019-04-23T18:59:21.231Z,12.58
2019-04-23T19:02:37.928Z,12.48
2019-04-23T19:10:26.708Z,12.25
2019-04-23T19:13:06.973Z,12.19
2019-04-23T19:15:37.997Z,12.30
2019-04-23T19:18:04.224Z,12.29
2019-04-23T19:25:46.709Z,12.26
2019-04-23T19:31:05.613Z,12.18
2019-04-23T19:36:14.186Z,12.15
2019-04-23T19:38:39.524Z,12.10
2019-04-23T19:41:08.554Z,12.02
2019-04-23T19:43:51.191Z,11.95
2019-04-23T19:46:24.899Z,11.93
2019-04-23T19:49:07.194Z,11.90
2019-04-23T19:51:17.166Z,11.87
2019-04-23T19:58:51.763Z,11.99
2019-04-23T20:01:25.782Z,11.87
2019-04-23T20:03:54.107Z,11.77
2019-04-23T20:09:17.051Z,12.04
2019-04-23T20:11:38.068Z,12.09
2019-04-23T20:13:57.510Z,11.95
2019-04-23T20:16:39.996Z,12.08
2019-04-23T20:18:54.824Z,12.13
2019-04-23T20:21:38.891Z,12.09
2019-04-23T20:24:18.552Z,12.02
2019-04-23T20:26:32.345Z,12.06
2019-04-23T20:35:06.573Z,12.05
2019-04-23T20:38:08.921Z,12.02
2019-04-23T20:40:18.620Z,11.96
2019-04-23T20:42:46.970Z,11.91
2019-04-23T20:45:16.259Z,11.88
2019-04-23T20:47:45.454Z,11.84
2019-04-23T20:50:13.729Z,11.82
2019-04-23T20:52:46.650Z,11.84
2019-04-23T20:55:41.182Z,11.78
2019-04-23T20:57:58.146Z,11.73
2019-04-23T21:05:44.645Z,11.80
2019-04-23T21:08:30.175Z,11.81
2019-04-23T21:11:01.397Z,11.80
2019-04-23T21:16:09.000Z,11.75
2019-04-23T21:18:34.531Z,11.74
2019-04-23T21:25:54.067Z,11.79
2019-04-23T21:28:40.064Z,11.73
2019-04-23T21:31:27.469Z,11.70
2019-04-23T21:33:50.786Z,11.52
2019-04-23T21:36:25.624Z,11.57
2019-04-23T21:44:40.530Z,11.54
2019-04-23T21:47:04.699Z,11.45
2019-04-23T21:49:35.843Z,11.43
2019-04-23T21:52:07.858Z,11.41
2019-04-23T21:54:32.243Z,11.41
2019-04-23T21:57:00.572Z,11.46
2019-04-23T21:59:39.596Z,11.41
2019-04-23T22:02:09.197Z,11.47
2019-04-23T22:04:39.872Z,11.55
2019-04-23T22:07:07.018Z,11.44
2019-04-23T22:09:46.674Z,11.26
2019-04-23T22:12:34.159Z,11.22
2019-04-23T22:14:45.349Z,11.19
2019-04-23T22:17:15.347Z,11.09
2019-04-23T22:19:55.249Z,11.17
2019-04-23T22:22:20.419Z,11.10
2019-04-23T22:24:48.814Z,10.99
2019-04-23T22:27:16.758Z,10.95
2019-04-23T22:29:49.228Z,11.03
2019-04-23T22:32:30.821Z,11.09
2019-04-23T22:35:00.407Z,10.93
2019-04-23T22:37:23.620Z,10.86
2019-04-23T22:43:04.108Z,10.89
2019-04-23T22:45:05.297Z,10.82
2019-04-23T22:47:34.579Z,10.90
2019-04-23T22:55:07.312Z,10.77
2019-04-23T22:57:56.000Z,10.70
2019-04-23T23:03:09.753Z,10.54
2019-04-23T23:08:13.150Z,10.50
2019-04-23T23:10:52.190Z,10.59
2019-04-23T23:13:20.606Z,10.46
2019-04-23T23:15:53.314Z,10.43
2019-04-23T23:23:40.782Z,10.53
2019-04-23T23:25:55.312Z,10.54
2019-04-23T23:28:31.378Z,10.54
2019-04-23T23:33:30.218Z,10.47
2019-04-23T23:36:08.531Z,10.48
2019-04-23T23:41:15.677Z,10.37
2019-04-23T23:48:42.094Z,10.35
2019-04-23T23:51:21.811Z,10.26
2019-04-23T23:53:51.296Z,10.25
2019-04-23T23:56:14.136Z,10.13
2019-04-23T23:58:55.284Z,10.09
